Terminal Aerodrome Forecast
Issued by NWS

Home | Current Version | Previous Version | Text Only | Print | Product List | Glossary Off
Versions: 1 2 3 4 5 6 7 8 9 10 11 12 13 14 15 16 17 18 19 20 21 22 23 24 25 26 27 28 29 30 31 32 33 34 35 36 37 38 39 40 41 42 43 44 45 46 47 48 49 50

000
FTUS43 KLOT 240800 AAA
TAFGYY
TAF AMD
KGYY 240835Z 2409/2506 36008KT 6SM -SHRA BR SCT025 OVC050
     FM241300 36013G22KT 4SM RA BR SCT008 OVC015
     FM241700 31016G25KT 1SM -SN BR OVC006
      TEMPO 2417/2421 1/2SM SN FG VV003
     FM250100 28015KT 3SM BR OVC007=

USA.gov is the U.S. government's official web portal to all federal, state and local government web resources and services.